createdAt,value
2023-03-30T00:04:46.440Z,14.89722
2023-03-30T00:09:48.128Z,15.32818
2023-03-30T00:14:49.603Z,17.3474
2023-03-30T00:19:51.231Z,18.23291
2023-03-30T00:24:52.829Z,17.5624
2023-03-30T00:29:54.308Z,17.60614
2023-03-30T00:34:55.779Z,18.91362
2023-03-30T00:39:57.274Z,18.44976
2023-03-30T00:44:58.694Z,19.2596
2023-03-30T00:50:00.135Z,18.00199
2023-03-30T00:55:01.587Z,19.24876
2023-03-30T01:00:03.669Z,20.45906
2023-03-30T01:05:05.138Z,20.47921
2023-03-30T01:10:06.944Z,23.18345
2023-03-30T01:15:08.411Z,25.41765
2023-03-30T01:20:09.854Z,28.3797
2023-03-30T01:25:11.437Z,28.78497
2023-03-30T01:30:12.974Z,30.19773
2023-03-30T01:35:14.540Z,28.78446
2023-03-30T01:40:15.953Z,27.79533
2023-03-30T01:45:17.342Z,27.11861
2023-03-30T01:50:18.937Z,27.39351
2023-03-30T01:55:20.378Z,27.60916
2023-03-30T02:00:21.766Z,29.98314
2023-03-30T02:05:23.197Z,30.57768
2023-03-30T02:10:24.606Z,31.81942
2023-03-30T02:15:26.014Z,33.85978
2023-03-30T02:20:27.438Z,32.8695
2023-03-30T02:25:28.887Z,31.07412
2023-03-30T02:30:30.279Z,31.60671
2023-03-30T02:35:32.470Z,31.2183
2023-03-30T02:40:33.898Z,33.39495
2023-03-30T02:45:35.372Z,34.42726
2023-03-30T02:50:36.876Z,35.92464
2023-03-30T02:55:38.341Z,34.65634
2023-03-30T03:00:39.823Z,32.28194
2023-03-30T03:05:41.193Z,33.98506
2023-03-30T03:10:42.609Z,33.49555
2023-03-30T03:15:44.011Z,34.96762
2023-03-30T03:20:45.449Z,35.43234
2023-03-30T03:25:46.821Z,36.19669
2023-03-30T03:30:48.362Z,35.32944
2023-03-30T03:35:49.839Z,34.02567
2023-03-30T03:40:51.484Z,35.37209
2023-03-30T03:45:53.145Z,36.00643
2023-03-30T03:50:54.661Z,36.67156
2023-03-30T03:55:56.078Z,35.4336
2023-03-30T04:00:57.713Z,36.45255
2023-03-30T04:05:59.167Z,37.18049
2023-03-30T04:11:00.711Z,37.64386
2023-03-30T04:16:02.171Z,38.87613
2023-03-30T04:21:03.947Z,37.64945
2023-03-30T04:26:05.558Z,41.75379
2023-03-30T04:31:07.171Z,41.32275
2023-03-30T04:36:08.868Z,39.19111
2023-03-30T04:41:10.406Z,39.50103
2023-03-30T04:46:11.887Z,39.24149
2023-03-30T04:51:13.562Z,39.85372
2023-03-30T04:56:15.243Z,41.46392
2023-03-30T05:01:16.681Z,38.61322
2023-03-30T05:06:18.121Z,40.46745
2023-03-30T05:11:19.587Z,41.06262
2023-03-30T05:16:21.080Z,40.57642
2023-03-30T05:21:22.489Z,41.5813
2023-03-30T05:26:23.960Z,41.43342
2023-03-30T05:31:25.481Z,42.65661
2023-03-30T05:36:26.993Z,43.62202
2023-03-30T05:41:28.406Z,41.1346
2023-03-30T05:46:29.876Z,41.36739
2023-03-30T05:51:31.578Z,42.20523
2023-03-30T05:56:33.034Z,43.19556
2023-03-30T06:01:34.658Z,42.64728
2023-03-30T06:06:36.097Z,41.77287
2023-03-30T06:11:37.676Z,43.98431
2023-03-30T06:16:39.199Z,45.60338
2023-03-30T06:21:40.800Z,46.62414
2023-03-30T06:26:42.202Z,45.165
2023-03-30T06:31:43.704Z,46.66694
2023-03-30T06:36:46.077Z,47.10154
2023-03-30T06:41:47.625Z,49.29536
2023-03-30T06:46:49.443Z,47.56573
2023-03-30T06:51:50.935Z,43.98968
2023-03-30T06:56:52.630Z,46.20017
2023-03-30T07:01:54.452Z,44.66821
2023-03-30T07:06:55.912Z,46.37321
2023-03-30T07:11:57.335Z,48.29446
2023-03-30T07:16:58.934Z,47.6096
2023-03-30T07:22:00.488Z,45.02928
2023-03-30T07:27:01.984Z,47.50553
2023-03-30T07:32:03.425Z,49.00021
2023-03-30T07:37:05.003Z,48.54485
2023-03-30T07:42:06.432Z,49.17491
2023-03-30T07:47:07.799Z,45.44231
2023-03-30T07:52:09.313Z,48.40164
2023-03-30T07:57:10.787Z,55.96466
2023-03-30T08:02:12.240Z,50.9427
2023-03-30T08:07:13.699Z,55.24335
2023-03-30T08:12:15.205Z,47.96921
2023-03-30T08:17:16.789Z,49.2188
2023-03-30T08:22:18.300Z,48.66542
2023-03-30T08:27:19.840Z,49.1769
2023-03-30T08:32:21.340Z,48.35888
2023-03-30T08:37:22.825Z,52.08503
2023-03-30T08:42:24.325Z,52.92707
2023-03-30T08:47:25.731Z,52.17285
2023-03-30T08:52:27.192Z,50.45423
2023-03-30T08:57:28.689Z,51.33057
2023-03-30T09:02:30.161Z,51.48294
2023-03-30T09:07:31.589Z,52.81986
2023-03-30T09:12:33.079Z,52.6591
2023-03-30T09:17:34.620Z,51.48669
2023-03-30T09:22:36.300Z,55.63925
2023-03-30T09:27:37.704Z,60.57007
2023-03-30T09:32:39.333Z,61.53148
2023-03-30T09:37:40.819Z,54.69651
2023-03-30T09:42:42.447Z,53.97174
2023-03-30T09:47:43.856Z,52.88238
2023-03-30T09:52:45.309Z,54.00675
2023-03-30T09:57:46.791Z,60.07019
2023-03-30T10:02:48.358Z,55.28382
2023-03-30T10:07:49.892Z,56.37063
2023-03-30T10:12:51.311Z,60.25444
2023-03-30T10:17:52.760Z,56.81708
2023-03-30T10:22:54.156Z,53.58055
2023-03-30T10:27:55.819Z,53.22922
2023-03-30T10:32:57.458Z,51.22613
2023-03-30T10:37:58.997Z,56.85797
2023-03-30T10:43:00.400Z,53.25833
2023-03-30T10:48:01.992Z,54.0363
2023-03-30T10:53:03.709Z,54.97747
2023-03-30T10:58:05.303Z,56.12519
2023-03-30T11:03:06.981Z,54.91894
2023-03-30T11:08:08.511Z,56.49091
2023-03-30T11:13:09.944Z,52.25259
2023-03-30T11:18:11.485Z,53.08326
2023-03-30T11:23:13.111Z,55.80532
2023-03-30T11:28:14.555Z,58.09335
2023-03-30T11:33:15.965Z,57.91081
2023-03-30T11:38:17.620Z,55.66388
2023-03-30T11:43:19.061Z,56.93491
2023-03-30T11:48:20.567Z,56.94307
2023-03-30T11:53:21.961Z,55.8647
2023-03-30T11:58:23.558Z,59.93641
2023-03-30T12:03:25.359Z,59.31144
2023-03-30T12:08:26.880Z,62.35668
2023-03-30T12:13:32.004Z,62.4056
2023-03-30T12:18:39.845Z,60.35166
2023-03-30T12:23:41.229Z,61.41868
2023-03-30T12:29:00.811Z,57.10189
2023-03-30T12:34:14.605Z,59.83129
2023-03-30T12:39:15.982Z,58.71221
2023-03-30T12:44:17.428Z,57.43238
2023-03-30T12:49:18.851Z,60.86484
2023-03-30T12:54:20.291Z,59.01535
2023-03-30T12:59:21.675Z,60.92958
2023-03-30T13:04:24.186Z,60.37345
2023-03-30T13:09:25.751Z,56.75195
2023-03-30T13:14:27.157Z,58.30874
2023-03-30T13:19:28.569Z,58.03666
2023-03-30T13:24:30.023Z,56.85372
2023-03-30T13:29:31.444Z,59.23578
2023-03-30T13:34:32.956Z,58.79302
2023-03-30T13:39:34.345Z,60.4966
2023-03-30T13:44:35.808Z,59.88703
2023-03-30T13:49:37.201Z,59.50221
2023-03-30T13:54:38.864Z,58.98287
2023-03-30T13:59:40.366Z,59.47376
2023-03-30T14:04:41.803Z,62.32398
2023-03-30T14:09:43.246Z,61.71156
2023-03-30T14:14:44.611Z,63.7568
2023-03-30T14:19:46.009Z,63.17877
2023-03-30T14:24:47.615Z,67.11748
2023-03-30T14:29:49.034Z,65.80837
2023-03-30T14:34:50.405Z,61.51147
2023-03-30T14:39:51.798Z,63.03223
2023-03-30T14:44:53.356Z,61.87693
2023-03-30T14:49:54.919Z,60.74816
2023-03-30T14:55:05.007Z,64.86304
2023-03-30T15:00:07.438Z,62.1305
2023-03-30T15:05:08.827Z,62.06764
2023-03-30T15:10:10.245Z,61.80305
2023-03-30T15:15:11.762Z,63.32342
2023-03-30T15:20:13.254Z,61.24232
2023-03-30T15:25:14.638Z,60.51496
2023-03-30T15:30:16.029Z,58.77988
2023-03-30T15:35:17.504Z,59.10331
2023-03-30T15:40:18.940Z,55.92735
2023-03-30T15:45:20.334Z,59.43332
2023-03-30T15:50:21.749Z,58.51496
2023-03-30T15:55:23.159Z,57.89821
2023-03-30T16:00:24.540Z,55.59944
2023-03-30T16:05:25.990Z,56.03721
2023-03-30T16:10:27.435Z,58.02978
2023-03-30T16:15:28.930Z,55.96417
2023-03-30T16:20:30.341Z,52.02423
2023-03-30T16:25:44.176Z,49.14105
2023-03-30T16:30:46.869Z,46.53963
2023-03-30T16:35:48.336Z,44.74646
2023-03-30T16:40:49.976Z,46.55071
2023-03-30T16:45:51.508Z,42.39764
2023-03-30T16:50:53.075Z,43.33647
2023-03-30T16:55:54.453Z,43.19242
2023-03-30T17:00:55.930Z,41.65323
2023-03-30T17:05:57.483Z,41.3974
2023-03-30T17:10:58.886Z,41.12009
2023-03-30T17:16:00.377Z,40.35236
2023-03-30T17:21:01.853Z,38.76995
2023-03-30T17:26:03.327Z,36.88913
2023-03-30T17:31:05.142Z,34.58035
2023-03-30T17:36:07.026Z,33.85805
2023-03-30T17:41:08.561Z,33.7923
2023-03-30T17:46:10.099Z,32.7565
2023-03-30T17:51:11.575Z,33.59048
2023-03-30T17:56:13.141Z,32.24324
2023-03-30T18:01:14.596Z,31.70997
2023-03-30T18:06:16.008Z,30.63186
2023-03-30T18:11:17.400Z,32.09655
2023-03-30T18:16:18.889Z,30.80025
2023-03-30T18:21:20.327Z,31.10925
2023-03-30T18:26:21.783Z,30.02724
2023-03-30T18:31:23.241Z,30.61756
2023-03-30T18:36:24.779Z,29.24142
2023-03-30T18:41:26.377Z,29.01694
2023-03-30T18:46:27.849Z,29.63573
2023-03-30T18:51:29.531Z,26.94361
2023-03-30T18:56:31.183Z,27.72645
2023-03-30T19:01:32.732Z,27.76481
2023-03-30T19:06:34.221Z,27.54891
2023-03-30T19:11:35.698Z,27.25419
2023-03-30T19:16:37.209Z,28.70528
2023-03-30T19:21:38.704Z,26.44155
2023-03-30T19:26:40.145Z,26.92193
2023-03-30T19:31:41.621Z,26.90726
2023-03-30T19:36:43.174Z,25.41276
2023-03-30T19:41:45.546Z,26.10319
2023-03-30T19:46:47.189Z,26.57437
2023-03-30T19:51:48.641Z,25.32644
2023-03-30T19:56:50.192Z,23.71604
2023-03-30T20:01:51.803Z,22.03595
2023-03-30T20:06:53.767Z,22.84346
2023-03-30T20:11:55.186Z,22.79689
2023-03-30T20:16:56.592Z,21.18812
2023-03-30T20:21:58.105Z,21.04564
2023-03-30T20:26:59.497Z,20.16842
2023-03-30T20:32:01.037Z,18.91953
2023-03-30T20:37:02.594Z,18.08979
2023-03-30T20:42:04.022Z,16.86052
2023-03-30T20:47:05.443Z,18.48837
2023-03-30T20:52:06.895Z,18.57454
2023-03-30T20:57:08.377Z,17.12423
2023-03-30T21:02:09.825Z,16.98355
2023-03-30T21:07:11.270Z,18.31497
2023-03-30T21:12:12.663Z,16.37557
2023-03-30T21:17:14.205Z,18.39754
2023-03-30T21:22:15.621Z,17.54609
2023-03-30T21:27:17.018Z,16.85965
2023-03-30T21:32:18.602Z,15.80111
2023-03-30T21:37:20.063Z,18.54403
2023-03-30T21:42:21.466Z,16.10631
2023-03-30T21:47:23.060Z,16.60219
2023-03-30T21:52:24.456Z,16.28383
2023-03-30T21:57:26.204Z,15.44046
2023-03-30T22:02:27.777Z,15.97942
2023-03-30T22:07:29.257Z,17.17361
2023-03-30T22:12:30.648Z,14.59823
2023-03-30T22:17:32.120Z,15.16547
2023-03-30T22:22:33.537Z,15.57658
2023-03-30T22:27:35.017Z,16.41561
2023-03-30T22:32:36.537Z,15.67421
2023-03-30T22:37:37.966Z,14.64448
2023-03-30T22:42:39.406Z,15.68453
2023-03-30T22:47:40.903Z,15.92006
2023-03-30T22:52:42.318Z,17.12685
2023-03-30T22:57:43.830Z,14.67579
2023-03-30T23:02:45.356Z,15.12626
2023-03-30T23:07:47.070Z,16.76541
2023-03-30T23:12:48.470Z,15.98208
2023-03-30T23:17:49.972Z,15.41286
2023-03-30T23:22:51.451Z,16.01161
2023-03-30T23:27:52.898Z,15.70107
2023-03-30T23:32:54.374Z,18.03603
2023-03-30T23:37:55.912Z,15.5752
2023-03-30T23:42:57.317Z,16.93467
2023-03-30T23:47:58.775Z,16.13211
2023-03-30T23:53:00.227Z,16.18832
2023-03-30T23:58:01.633Z,18.2078
